Station History

Weather Underground - logo

Station Historical Data
Daily Summary for January 22, 2018 Units:  Metric    English   Both
« Previous Day
Next Day »
Daily Weekly Monthly Yearly Custom
  High: Low: Average:
Temperature: 15.6 °C 1.9 °C 8 °C
Dew Point: 6.6 °C 0.8 °C 4.2 °C
Humidity: 95 % 52 % 79 %
Wind Speed: 6.4 km/h 0 km/h 0.8 km/h
Wind Gust: 6.4 km/h - -
Wind:- - SW
Pressure: 1030 hPa 1025.6 hPa -
Precipitation: 0 mm    
Historical Graphs
 
 
Tabular Data for January 22, 2018
Time Temperature Dew Point Pressure Wind Wind Speed Wind Gust Humidity Rainfall Rate (Hourly)
00:04 3.5 °C 2.5 °C 1029.3 hPa Calm     93 % 0 mm
00:09 3.4 °C 2.4 °C 1029.3 hPa Calm     93 % 0 mm
00:14 3.5 °C 2.6 °C 1029.3 hPa Calm     94 % 0 mm
00:19 3.5 °C 2.6 °C 1029.3 hPa Calm     94 % 0 mm
00:24 3.4 °C 2.4 °C 1029.3 hPa Calm     93 % 0 mm
00:29 3.4 °C 2.5 °C 1029.3 hPa Calm     94 % 0 mm
00:34 3.3 °C 2.4 °C 1029.3 hPa Calm     94 % 0 mm
00:39 3.4 °C 2.5 °C 1029 hPa Calm     94 % 0 mm
00:49 3.3 °C 2.4 °C 1029 hPa Calm     94 % 0 mm
00:59 3.1 °C 2.2 °C 1029 hPa Calm     94 % 0 mm
01:09 2.9 °C 2.1 °C 1029.3 hPa Calm     94 % 0 mm
01:14 2.9 °C 2 °C 1029 hPa Calm     94 % 0 mm
01:19 3.1 °C 2.2 °C 1029.3 hPa Calm     94 % 0 mm
01:24 3.2 °C 2.3 °C 1029.3 hPa Calm     94 % 0 mm
01:29 3.3 °C 2.6 °C 1029.3 hPa Calm     95 % 0 mm
01:34 3.4 °C 2.5 °C 1029.3 hPa Calm     94 % 0 mm
01:39 3.5 °C 2.6 °C 1029.3 hPa Calm     94 % 0 mm
01:44 3.6 °C 2.7 °C 1029.3 hPa Calm     94 % 0 mm
01:49 3.4 °C 2.4 °C 1029.3 hPa Calm     93 % 0 mm
01:54 3.3 °C 2.3 °C 1029.3 hPa Calm     93 % 0 mm
01:59 3.2 °C 2.2 °C 1029.3 hPa Calm     93 % 0 mm
02:04 3.1 °C 2.1 °C 1029.3 hPa Calm     93 % 0 mm
02:09 3.1 °C 2.1 °C 1029.3 hPa Calm     93 % 0 mm
02:15 2.9 °C 1.8 °C 1029.3 hPa Calm     92 % 0 mm
02:20 2.9 °C 1.7 °C 1029.3 hPa Calm     92 % 0 mm
02:25 2.8 °C 1.8 °C 1029.3 hPa Calm     93 % 0 mm
02:30 2.8 °C 1.8 °C 1029.3 hPa Calm     93 % 0 mm
02:35 2.7 °C 1.7 °C 1029.3 hPa Calm     93 % 0 mm
02:45 2.6 °C 1.6 °C 1029 hPa Calm     93 % 0 mm
02:50 2.6 °C 1.6 °C 1029 hPa Calm     93 % 0 mm
02:55 2.5 °C 1.5 °C 1029 hPa Calm     93 % 0 mm
03:00 2.5 °C 1.5 °C 1029 hPa Calm     93 % 0 mm
03:05 2.4 °C 1.4 °C 1029 hPa Calm     93 % 0 mm
03:10 2.4 °C 1.4 °C 1029 hPa Calm     93 % 0 mm
03:15 2.5 °C 1.5 °C 1029 hPa Calm     93 % 0 mm
03:20 2.4 °C 1.4 °C 1029 hPa Calm     93 % 0 mm
03:25 2.4 °C 1.6 °C 1029 hPa Calm     94 % 0 mm
03:30 2.5 °C 1.6 °C 1029 hPa Calm     94 % 0 mm
03:35 2.6 °C 1.7 °C 1029 hPa Calm     94 % 0 mm
03:40 2.6 °C 1.7 °C 1029 hPa Calm     94 % 0 mm
03:45 2.6 °C 1.7 °C 1029 hPa Calm     94 % 0 mm
03:50 2.6 °C 1.7 °C 1029 hPa Calm     94 % 0 mm
03:55 2.5 °C 1.6 °C 1028.7 hPa Calm     94 % 0 mm
04:00 2.4 °C 1.6 °C 1028.7 hPa Calm     94 % 0 mm
04:05 2.4 °C 1.6 °C 1028.7 hPa Calm     94 % 0 mm
04:10 2.5 °C 1.6 °C 1028.7 hPa Calm     94 % 0 mm
04:15 2.6 °C 1.7 °C 1028.7 hPa Calm     94 % 0 mm
04:25 2.3 °C 1.4 °C 1028.7 hPa Calm     94 % 0 mm
04:30 2.1 °C 1.2 °C 1028.7 hPa Calm     94 % 0 mm
04:35 1.9 °C 0.9 °C 1028.7 hPa Calm     93 % 0 mm
04:41 2 °C 1.1 °C 1029 hPa Calm     94 % 0 mm
04:46 2.2 °C 1.3 °C 1029 hPa Calm     94 % 0 mm
04:56 2.3 °C 1.6 °C 1029 hPa Calm     95 % 0 mm
05:01 2.3 °C 1.6 °C 1029 hPa Calm     95 % 0 mm
05:06 2.2 °C 1.3 °C 1028.7 hPa Calm     94 % 0 mm
05:11 2.1 °C 1.2 °C 1028.7 hPa Calm     94 % 0 mm
05:16 2.1 °C 1.2 °C 1028.7 hPa Calm     94 % 0 mm
05:21 2.1 °C 1.4 °C 1029 hPa Calm     95 % 0 mm
05:26 2.1 °C 1.3 °C 1029 hPa Calm     95 % 0 mm
05:31 2.1 °C 1.4 °C 1029 hPa Calm     95 % 0 mm
05:36 2.4 °C 1.7 °C 1029.3 hPa Calm     95 % 0 mm
05:41 2.6 °C 1.9 °C 1029.3 hPa Calm     95 % 0 mm
05:46 2.7 °C 1.9 °C 1029.3 hPa Calm     95 % 0 mm
05:51 2.6 °C 1.8 °C 1029.3 hPa Calm     95 % 0 mm
05:56 2.4 °C 1.7 °C 1029.3 hPa Calm     95 % 0 mm
06:01 2.3 °C 1.4 °C 1029.3 hPa Calm     94 % 0 mm
06:06 2.4 °C 1.7 °C 1029.7 hPa Calm     95 % 0 mm
06:11 2.6 °C 1.8 °C 1029.7 hPa Calm     95 % 0 mm
06:21 2.6 °C 1.8 °C 1029.7 hPa Calm     95 % 0 mm
06:26 2.5 °C 1.6 °C 1029.7 hPa Calm     94 % 0 mm
06:31 2.4 °C 1.6 °C 1029.3 hPa Calm     94 % 0 mm
06:36 2.3 °C 1.4 °C 1029.3 hPa Calm     94 % 0 mm
06:41 2.5 °C 1.8 °C 1029.7 hPa Calm     95 % 0 mm
06:46 2.6 °C 1.9 °C 1029.7 hPa Calm     95 % 0 mm
06:56 2.6 °C 1.7 °C 1029.7 hPa Calm     94 % 0 mm
07:01 2.7 °C 2 °C 1029.7 hPa Calm     95 % 0 mm
07:06 2.7 °C 2 °C 1029.3 hPa Calm     95 % 0 mm
07:11 2.7 °C 1.8 °C 1029.3 hPa Calm     94 % 0 mm
07:16 2.7 °C 1.8 °C 1029.3 hPa Calm     94 % 0 mm
07:18 2.6 °C 1.6 °C 1029.3 hPa Calm     93 % 0 mm
07:23 2.2 °C 1.1 °C 1029.3 hPa Calm     92 % 0 mm
07:28 2 °C 0.8 °C 1029 hPa Calm     92 % 0 mm
07:33 1.9 °C 0.9 °C 1029.3 hPa Calm     93 % 0 mm
07:38 1.9 °C 0.9 °C 1029 hPa Calm     93 % 0 mm
07:43 2 °C 1 °C 1029.3 hPa Calm     93 % 0 mm
07:48 2.1 °C 1.1 °C 1029.3 hPa Calm     93 % 0 mm
07:53 2.3 °C 1.4 °C 1029.3 hPa Calm     94 % 0 mm
07:58 2.6 °C 1.7 °C 1029.3 hPa Calm     94 % 0 mm
08:03 2.8 °C 1.8 °C 1029.3 hPa WNW 1.9 km/h   93 % 0 mm
08:08 3.2 °C 2.2 °C 1029.7 hPa Calm     93 % 0 mm
08:13 3.7 °C 2.7 °C 1029.7 hPa Calm     93 % 0 mm
08:18 4.4 °C 3.5 °C 1029.7 hPa Calm     94 % 0 mm
08:23 5.4 °C 4.3 °C 1029.7 hPa Calm     93 % 0 mm
08:28 6.1 °C 4.6 °C 1029.7 hPa Calm     90 % 0 mm
08:33 6.5 °C 4.7 °C 1029.7 hPa Calm     88 % 0 mm
08:38 6.9 °C 4.9 °C 1029.7 hPa Calm     87 % 0 mm
08:43 7.4 °C 5.4 °C 1029.7 hPa Calm     87 % 0 mm
08:48 7.6 °C 5.2 °C 1029.7 hPa Calm     85 % 0 mm
08:53 8.2 °C 5.8 °C 1029.7 hPa Calm     85 % 0 mm
08:58 8.7 °C 6 °C 1030 hPa SSE 1.9 km/h 1.9 km/h 83 % 0 mm
09:03 9.1 °C 5.8 °C 1030 hPa Calm     80 % 0 mm
09:08 9.1 °C 5.6 °C 1030 hPa Calm     79 % 0 mm
09:13 8.8 °C 5.3 °C 1030 hPa Calm     79 % 0 mm
09:18 8.8 °C 5.6 °C 1030 hPa Calm     80 % 0 mm
09:23 8.8 °C 5.6 °C 1030 hPa Calm     80 % 0 mm
09:28 9.3 °C 5.8 °C 1030 hPa SE 1.9 km/h 1.9 km/h 79 % 0 mm
09:33 9.6 °C 5.6 °C 1030 hPa SSE 1.9 km/h 1.9 km/h 76 % 0 mm
09:38 10 °C 5.9 °C 1030 hPa ESE 1.9 km/h 1.9 km/h 76 % 0 mm
09:43 10.3 °C 6.3 °C 1030 hPa SSE 1.6 km/h   76 % 0 mm
09:48 10.8 °C 6.5 °C 1030 hPa South 1.9 km/h   75 % 0 mm
09:53 10.8 °C 6.4 °C 1030 hPa Calm     74 % 0 mm
09:58 11 °C 6.2 °C 1030 hPa SE 1.9 km/h 1.9 km/h 72 % 0 mm
10:03 11.2 °C 6.3 °C 1030 hPa SE 3.7 km/h 3.7 km/h 72 % 0 mm
10:08 11.3 °C 6.3 °C 1030 hPa SSE 1.9 km/h 1.9 km/h 71 % 0 mm
10:13 11.7 °C 6.4 °C 1030 hPa Calm     70 % 0 mm
10:18 12 °C 6.5 °C 1030 hPa Calm     69 % 0 mm
10:23 12.3 °C 6.3 °C 1030 hPa SE 3.7 km/h 3.7 km/h 67 % 0 mm
10:28 12.6 °C 6.6 °C 1030 hPa South 1.9 km/h 1.9 km/h 67 % 0 mm
10:33 12.8 °C 6.6 °C 1030 hPa SSE 1.9 km/h 1.9 km/h 66 % 0 mm
10:38 13 °C 6.6 °C 1029.7 hPa ESE 3.7 km/h   65 % 0 mm
10:43 13 °C 6.3 °C 1029.7 hPa Calm   0.6 km/h 64 % 0 mm
10:48 13 °C 6.3 °C 1029.7 hPa Calm     64 % 0 mm
10:53 13 °C 6.1 °C 1029.7 hPa Calm   0.3 km/h 63 % 0 mm
10:59 12.8 °C 5.9 °C 1029.7 hPa Calm   0.2 km/h 63 % 0 mm
11:04 13.1 °C 6.4 °C 1029.7 hPa SSE 1.9 km/h   64 % 0 mm
11:09 13.2 °C 6.1 °C 1029.3 hPa SE 1.6 km/h   62 % 0 mm
11:14 13.3 °C 5.9 °C 1029.3 hPa West 3.7 km/h 3.7 km/h 61 % 0 mm
11:19 13.3 °C 6.4 °C 1029.3 hPa South 1.9 km/h   63 % 0 mm
11:24 13.5 °C 6.3 °C 1029 hPa SE 3.7 km/h 3.7 km/h 62 % 0 mm
11:29 13.7 °C 6.1 °C 1029 hPa Calm     60 % 0 mm
11:34 13.7 °C 6.1 °C 1029 hPa Calm     60 % 0 mm
11:39 13.8 °C 6.2 °C 1028.7 hPa SSW 1.9 km/h 1.9 km/h 60 % 0 mm
11:44 14 °C 6.3 °C 1028.7 hPa NW 3.2 km/h 3.2 km/h 60 % 0 mm
11:49 13.8 °C 5.9 °C 1028.7 hPa NNW 3.7 km/h 3.7 km/h 59 % 0 mm
11:54 13.8 °C 6.2 °C 1028.7 hPa SSE 5.6 km/h 5.6 km/h 60 % 0 mm
11:59 14 °C 6.1 °C 1028.7 hPa North 3.7 km/h 3.7 km/h 59 % 0 mm
12:04 14.1 °C 6.2 °C 1028.3 hPa Calm     59 % 0 mm
12:09 14.3 °C 6.4 °C 1028.3 hPa SSE 5.6 km/h 5.6 km/h 59 % 0 mm
12:14 14.3 °C 6.1 °C 1028.3 hPa North 1.9 km/h 1.9 km/h 58 % 0 mm
12:19 14.3 °C 6.2 °C 1028 hPa NW 3.7 km/h 3.7 km/h 58 % 0 mm
12:24 14.6 °C 6.6 °C 1028 hPa SE 1.9 km/h 1.9 km/h 59 % 0 mm
12:29 14.4 °C 6 °C 1028 hPa WNW 3.7 km/h 3.7 km/h 57 % 0 mm
12:34 14.4 °C 6.5 °C 1027.7 hPa ESE 5.6 km/h 5.6 km/h 59 % 0 mm
12:39 14.7 °C 6 °C 1027.7 hPa SE 5.6 km/h 5.6 km/h 56 % 0 mm
12:44 14.8 °C 6.1 °C 1027.7 hPa SSW 5.6 km/h 5.6 km/h 56 % 0 mm
12:49 14.8 °C 6.4 °C 1027.3 hPa ESE 5.6 km/h 5.6 km/h 57 % 0 mm
12:54 15 °C 6.6 °C 1027.3 hPa NNW 3.2 km/h 3.2 km/h 57 % 0 mm
12:59 15.1 °C 6.1 °C 1027.3 hPa NE 1.9 km/h 1.9 km/h 55 % 0 mm
13:04 15.1 °C 6.1 °C 1027.3 hPa North 4.8 km/h 4.8 km/h 55 % 0 mm
13:09 15 °C 5.8 °C 1027.3 hPa NNW 5.6 km/h 5.6 km/h 54 % 0 mm
13:14 15.2 °C 5.7 °C 1027 hPa WNW 3.2 km/h 3.2 km/h 53 % 0 mm
13:19 14.9 °C 5.7 °C 1027 hPa SSE 6.4 km/h 6.4 km/h 54 % 0 mm
13:24 15.1 °C 5.6 °C 1027 hPa North 3.7 km/h 3.7 km/h 53 % 0 mm
13:29 15.1 °C 5.9 °C 1027 hPa WNW 3.7 km/h 3.7 km/h 54 % 0 mm
13:34 15 °C 6 °C 1027 hPa WNW 3.7 km/h 3.7 km/h 55 % 0 mm
13:39 15.1 °C 6.1 °C 1027 hPa NW 3.7 km/h 3.7 km/h 55 % 0 mm
13:44 14.8 °C 5.6 °C 1026.6 hPa NNW 1.9 km/h 1.9 km/h 54 % 0 mm
13:49 15 °C 6 °C 1026.6 hPa WNW 3.7 km/h 3.7 km/h 55 % 0 mm
13:54 15.3 °C 5.5 °C 1026.6 hPa Calm     52 % 0 mm
13:59 15.3 °C 5.5 °C 1026.6 hPa WNW 3.7 km/h 3.7 km/h 52 % 0 mm
14:04 15.2 °C 5.7 °C 1026.6 hPa NW 5.6 km/h 5.6 km/h 53 % 0 mm
14:09 15.3 °C 5.8 °C 1026.6 hPa SSE 5.6 km/h 5.6 km/h 53 % 0 mm
14:14 15.4 °C 5.8 °C 1026.3 hPa ESE 1.6 km/h   53 % 0 mm
14:19 15.5 °C 5.7 °C 1026.3 hPa East 3.7 km/h   52 % 0 mm
14:24 15.6 °C 5.8 °C 1026.3 hPa SE 3.2 km/h 3.2 km/h 52 % 0 mm
14:29 15.6 °C 5.8 °C 1026.3 hPa WNW 5.6 km/h 5.6 km/h 52 % 0 mm
14:35 15.5 °C 5.7 °C 1026.3 hPa SSW 1.9 km/h 1.9 km/h 52 % 0 mm
14:39 15.6 °C 5.7 °C 1026.3 hPa SSE 1.9 km/h 1.9 km/h 52 % 0 mm
14:44 15.6 °C 6.1 °C 1026 hPa Calm     53 % 0 mm
14:50 15.5 °C 5.7 °C 1026 hPa West 1.9 km/h 1.9 km/h 52 % 0 mm
14:55 15.2 °C 5.9 °C 1026 hPa NW 3.7 km/h 3.7 km/h 54 % 0 mm
15:00 15.1 °C 5.8 °C 1026 hPa Calm     54 % 0 mm
15:05 15.1 °C 6.1 °C 1026.3 hPa Calm     55 % 0 mm
15:10 15.1 °C 5.9 °C 1026.3 hPa NNW 1.9 km/h   54 % 0 mm
15:15 15.1 °C 6.1 °C 1026 hPa WSW 1.9 km/h 1.9 km/h 55 % 0 mm
15:20 15 °C 5.8 °C 1026 hPa SE 1.9 km/h 1.9 km/h 54 % 0 mm
15:25 14.9 °C 5.7 °C 1026 hPa NW 1.9 km/h   54 % 0 mm
15:30 14.8 °C 5.9 °C 1026 hPa WNW 1.9 km/h 1.9 km/h 55 % 0 mm
15:35 14.7 °C 5.5 °C 1026 hPa Calm     54 % 0 mm
15:40 14.6 °C 5.7 °C 1026 hPa Calm     55 % 0 mm
15:45 14.7 °C 5.4 °C 1026 hPa WSW 1.9 km/h   54 % 0 mm
15:50 14.7 °C 5.4 °C 1026 hPa Calm     54 % 0 mm
15:55 14.6 °C 5.7 °C 1026 hPa NW 1.9 km/h 1.9 km/h 55 % 0 mm
16:00 14.6 °C 5.9 °C 1026 hPa Calm     56 % 0 mm
16:05 14.6 °C 5.9 °C 1026 hPa Calm     56 % 0 mm
16:10 14.5 °C 5.6 °C 1026 hPa Calm     55 % 0 mm
16:15 14.4 °C 5.5 °C 1026 hPa Calm     55 % 0 mm
16:20 14.3 °C 5.4 °C 1026 hPa Calm     55 % 0 mm
16:25 14.3 °C 5.3 °C 1026 hPa Calm     55 % 0 mm
16:30 14.2 °C 5.6 °C 1026 hPa Calm     56 % 0 mm
16:35 14.1 °C 5.7 °C 1026 hPa Calm     57 % 0 mm
16:40 13.9 °C 6.1 °C 1026 hPa Calm     59 % 0 mm
16:45 13.9 °C 6 °C 1026 hPa Calm     59 % 0 mm
16:50 13.7 °C 5.8 °C 1026 hPa Calm     59 % 0 mm
17:00 13.3 °C 6.2 °C 1026.3 hPa Calm     62 % 0 mm
17:15 12.4 °C 5.8 °C 1026.3 hPa Calm     64 % 0 mm
17:20 12.2 °C 6 °C 1026.3 hPa Calm     66 % 0 mm
17:25 11.9 °C 6.2 °C 1026.3 hPa Calm     68 % 0 mm
17:30 11.6 °C 6.3 °C 1026 hPa Calm     70 % 0 mm
17:35 11.3 °C 6.1 °C 1026 hPa Calm     70 % 0 mm
17:40 11.1 °C 6.1 °C 1026 hPa Calm     71 % 0 mm
17:45 10.8 °C 6 °C 1026 hPa Calm     72 % 0 mm
17:50 10.6 °C 6.1 °C 1026 hPa Calm     74 % 0 mm
17:55 10.3 °C 5.9 °C 1026.3 hPa Calm     74 % 0 mm
18:00 10.1 °C 5.9 °C 1026 hPa Calm     75 % 0 mm
18:05 10.1 °C 6.2 °C 1026 hPa Calm     77 % 0 mm
18:10 9.9 °C 6.1 °C 1026 hPa Calm     77 % 0 mm
18:20 9.7 °C 5.7 °C 1026 hPa Calm     76 % 0 mm
18:25 9.7 °C 6 °C 1026 hPa Calm     78 % 0 mm
18:35 9.3 °C 5.7 °C 1026 hPa Calm     78 % 0 mm
18:40 9.2 °C 5.7 °C 1026 hPa Calm     79 % 0 mm
18:45 8.9 °C 5.7 °C 1026 hPa Calm     80 % 0 mm
18:50 8.7 °C 5.4 °C 1026 hPa Calm     80 % 0 mm
18:55 8.6 °C 5.7 °C 1026 hPa Calm     82 % 0 mm
19:00 8.4 °C 5.6 °C 1026 hPa Calm     82 % 0 mm
19:15 8.2 °C 5.5 °C 1025.6 hPa Calm     83 % 0 mm
19:20 8.2 °C 5.3 °C 1025.6 hPa Calm     82 % 0 mm
19:25 8.1 °C 5.2 °C 1025.6 hPa Calm     82 % 0 mm
19:30 8 °C 5.3 °C 1025.6 hPa Calm     83 % 0 mm
19:35 7.9 °C 5.4 °C 1025.6 hPa Calm     84 % 0 mm
19:50 7.8 °C 5.2 °C 1025.6 hPa Calm     84 % 0 mm
19:55 7.7 °C 5.2 °C 1025.6 hPa Calm     84 % 0 mm
20:00 7.7 °C 5.1 °C 1025.6 hPa Calm     84 % 0 mm
20:05 7.6 °C 5.1 °C 1025.6 hPa Calm     84 % 0 mm
20:10 7.6 °C 5.2 °C 1025.6 hPa Calm     85 % 0 mm
20:15 7.4 °C 5.1 °C 1025.6 hPa Calm     85 % 0 mm
20:20 7.3 °C 5 °C 1025.6 hPa Calm     85 % 0 mm
20:25 7.3 °C 5.1 °C 1026 hPa Calm     86 % 0 mm
20:30 7.2 °C 5.1 °C 1026 hPa Calm     86 % 0 mm
20:40 6.8 °C 4.8 °C 1026 hPa Calm     87 % 0 mm
20:45 6.7 °C 4.7 °C 1026 hPa Calm     87 % 0 mm
20:55 6.6 °C 4.6 °C 1026 hPa Calm     87 % 0 mm
21:00 6.3 °C 4.5 °C 1026 hPa Calm     88 % 0 mm
21:05 6.2 °C 4.4 °C 1026 hPa Calm     88 % 0 mm
21:15 6.2 °C 4.6 °C 1026 hPa Calm     89 % 0 mm
21:20 6.4 °C 4.6 °C 1026 hPa Calm     88 % 0 mm
21:25 6.6 °C 4.7 °C 1026.3 hPa Calm     88 % 0 mm
21:30 6.7 °C 4.7 °C 1026.3 hPa Calm     87 % 0 mm
21:35 6.7 °C 4.5 °C 1026 hPa Calm     86 % 0 mm
21:40 6.7 °C 4.5 °C 1026.3 hPa Calm     86 % 0 mm
21:45 6.6 °C 4.4 °C 1026.3 hPa Calm     86 % 0 mm
21:50 6.5 °C 4.3 °C 1026.3 hPa Calm     86 % 0 mm
21:55 6 °C 3.7 °C 1026.3 hPa Calm     85 % 0 mm
22:00 5.7 °C 3.5 °C 1026.3 hPa Calm     86 % 0 mm
22:05 5.4 °C 3.4 °C 1026.3 hPa Calm     87 % 0 mm
22:10 5.2 °C 3.4 °C 1026.3 hPa Calm     88 % 0 mm
22:15 5 °C 3.3 °C 1026.3 hPa Calm     89 % 0 mm
22:20 4.9 °C 3.4 °C 1026.6 hPa Calm     90 % 0 mm
22:25 4.9 °C 3.4 °C 1026.6 hPa Calm     90 % 0 mm
22:30 4.8 °C 3.3 °C 1026.6 hPa Calm     90 % 0 mm
22:35 4.7 °C 3.2 °C 1026.6 hPa Calm     90 % 0 mm
22:40 4.6 °C 3.1 °C 1026.6 hPa Calm     90 % 0 mm
22:46 4.5 °C 3.2 °C 1026.3 hPa Calm     91 % 0 mm
22:51 4.4 °C 3.1 °C 1026.3 hPa Calm     91 % 0 mm
22:56 4.4 °C 3.1 °C 1026.3 hPa Calm     91 % 0 mm
23:06 4.5 °C 3.3 °C 1026.3 hPa Calm     92 % 0 mm
23:11 4.7 °C 3.5 °C 1026.3 hPa Calm     92 % 0 mm
23:16 4.8 °C 3.7 °C 1026.3 hPa Calm     92 % 0 mm
23:27 4.7 °C 3.2 °C 1026.3 hPa Calm     90 % 0 mm
23:32 4.7 °C 3.2 °C 1026.3 hPa Calm     90 % 0 mm
23:37 4.8 °C 3.5 °C 1026.3 hPa Calm     91 % 0 mm
23:42 4.9 °C 3.4 °C 1026.3 hPa Calm     90 % 0 mm
23:52 4.9 °C 3.6 °C 1026.3 hPa Calm     91 % 0 mm
23:57 5.1 °C 3.6 °C 1026.3 hPa Calm     90 % 0 mm
Park Place, Exeter, Tulare County, California, USA
Compliments of Weather Underground - 2.5 mb